Time;durP1;ratioP1;P1;durP2;ratioP2;P2;SDS_P1;SDS_P2;PMS_P1;PMS_P2;Temp;Humidity;BMP_temperature;BMP_pressure;BME280_temperature;BME280_humidity;BME280_pressure;Samples;Min_cycle;Max_cycle;Signal;HPM_P1;HPM_P2
2024/01/24 00:02:23;;;;;;;10.50;6.27;;;;;;;;;;4343335;32;316421;-76
2024/01/24 00:04:50;;;;;;;14.00;6.17;;;;;;;;;;4361137;32;315812;-76
2024/01/24 00:07:16;;;;;;;16.67;7.60;;;;;;;;;;4352538;32;317089;-76
2024/01/24 00:09:45;;;;;;;13.53;6.90;;;;;;;;;;4361468;32;317220;-76
2024/01/24 00:12:25;;;;;;;11.03;6.60;;;;;;;;;;4352805;32;317106;-76
2024/01/24 00:14:53;;;;;;;17.10;8.10;;;;;;;;;;4353632;32;316529;-76
2024/01/24 00:17:21;;;;;;;16.70;7.37;;;;;;;;;;4337857;32;317131;-76
2024/01/24 00:19:48;;;;;;;6.97;4.97;;;;;;;;;;4347789;32;317878;-76
2024/01/24 00:22:14;;;;;;;8.90;4.73;;;;;;;;;;4332911;32;316003;-76
2024/01/24 00:24:41;;;;;;;5.87;3.97;;;;;;;;;;4341373;32;316185;-76
2024/01/24 00:27:08;;;;;;;10.93;4.60;;;;;;;;;;4336152;32;316064;-76
2024/01/24 00:29:39;;;;;;;8.97;5.30;;;;;;;;;;4347139;32;316764;-76
2024/01/24 00:32:06;;;;;;;12.93;5.20;;;;;;;;;;4334269;32;316060;-76
2024/01/24 00:34:32;;;;;;;9.37;6.03;;;;;;;;;;4343568;32;316412;-76
2024/01/24 00:37:00;;;;;;;12.93;7.63;;;;;;;;;;4361121;32;316415;-76
2024/01/24 00:39:27;;;;;;;17.47;9.67;;;;;;;;;;4349524;32;317649;-76
2024/01/24 00:41:58;;;;;;;14.57;8.10;;;;;;;;;;4361831;32;316815;-76
2024/01/24 00:44:28;;;;;;;14.70;8.07;;;;;;;;;;4345375;32;317369;-76
2024/01/24 00:46:58;;;;;;;11.87;7.27;;;;;;;;;;4358775;32;317303;-76
2024/01/24 00:49:26;;;;;;;14.83;8.83;;;;;;;;;;4351228;32;317145;-76
2024/01/24 00:51:53;;;;;;;10.67;6.70;;;;;;;;;;4357332;32;317408;-76
2024/01/24 00:54:21;;;;;;;18.53;9.47;;;;;;;;;;4345592;32;316605;-76
2024/01/24 00:56:49;;;;;;;14.00;7.43;;;;;;;;;;4361498;32;317156;-76
2024/01/24 00:59:16;;;;;;;12.80;6.70;;;;;;;;;;4350409;32;317336;-76
2024/01/24 01:01:43;;;;;;;13.77;8.23;;;;;;;;;;4360530;32;316606;-76
2024/01/24 01:04:14;;;;;;;15.13;7.80;;;;;;;;;;4351046;32;317073;-76
2024/01/24 01:06:40;;;;;;;19.50;9.80;;;;;;;;;;4352227;32;317183;-76
2024/01/24 01:09:08;;;;;;;18.60;9.77;;;;;;;;;;4344313;32;323362;-76
2024/01/24 01:11:34;;;;;;;20.23;10.63;;;;;;;;;;4351592;32;317075;-76
2024/01/24 01:14:02;;;;;;;23.43;11.93;;;;;;;;;;4345313;32;317731;-76
2024/01/24 01:16:29;;;;;;;19.80;10.63;;;;;;;;;;4329025;32;317386;-76
2024/01/24 01:18:59;;;;;;;23.47;10.50;;;;;;;;;;4346929;32;318373;-76
2024/01/24 01:21:29;;;;;;;15.63;8.93;;;;;;;;;;4333044;32;317877;-76
2024/01/24 01:23:56;;;;;;;13.90;7.57;;;;;;;;;;4346121;32;317025;-76
2024/01/24 01:26:22;;;;;;;20.27;11.27;;;;;;;;;;4333937;32;317405;-76
2024/01/24 01:28:50;;;;;;;22.80;11.70;;;;;;;;;;4343951;32;321617;-76
2024/01/24 01:31:17;;;;;;;19.23;10.40;;;;;;;;;;4343549;32;325438;-76
2024/01/24 01:33:44;;;;;;;19.60;10.63;;;;;;;;;;4361677;32;318309;-76
2024/01/24 01:36:11;;;;;;;19.33;11.27;;;;;;;;;;4351911;32;317651;-76
2024/01/24 01:38:39;;;;;;;21.63;10.83;;;;;;;;;;4355732;32;318240;-76
2024/01/24 01:41:05;;;;;;;17.00;9.97;;;;;;;;;;4358035;32;318217;-76
2024/01/24 01:43:33;;;;;;;11.43;7.73;;;;;;;;;;4343485;32;317092;-76
2024/01/24 01:46:06;;;;;;;15.70;8.17;;;;;;;;;;4359714;32;317246;-76
2024/01/24 01:48:34;;;;;;;14.53;8.00;;;;;;;;;;4343337;32;416396;-76
2024/01/24 01:51:02;;;;;;;9.70;5.77;;;;;;;;;;4361898;32;317035;-76
2024/01/24 01:53:29;;;;;;;11.33;5.23;;;;;;;;;;4351325;32;315696;-76
2024/01/24 01:55:58;;;;;;;15.03;6.37;;;;;;;;;;4359898;32;317276;-76
2024/01/24 01:58:28;;;;;;;11.43;5.80;;;;;;;;;;4333822;32;322872;-76
2024/01/24 02:00:54;;;;;;;11.97;5.77;;;;;;;;;;4345593;32;317343;-76
2024/01/24 02:03:21;;;;;;;11.67;6.10;;;;;;;;;;4334308;32;317249;-76
2024/01/24 02:05:49;;;;;;;9.60;5.77;;;;;;;;;;4359328;32;317234;-76
2024/01/24 02:08:18;;;;;;;8.83;6.17;;;;;;;;;;4336900;32;316237;-76
2024/01/24 02:10:46;;;;;;;10.27;6.33;;;;;;;;;;4361047;32;316403;-76
2024/01/24 02:13:16;;;;;;;10.27;7.20;;;;;;;;;;4342907;32;317133;-76
2024/01/24 02:15:45;;;;;;;13.50;6.87;;;;;;;;;;4358012;32;317318;-76
2024/01/24 02:18:14;;;;;;;12.53;6.77;;;;;;;;;;4349246;32;317414;-76
2024/01/24 02:20:45;;;;;;;9.73;6.00;;;;;;;;;;4359801;32;317209;-76
2024/01/24 02:23:16;;;;;;;12.67;7.33;;;;;;;;;;4341978;32;316239;-76
2024/01/24 02:25:49;;;;;;;11.83;7.07;;;;;;;;;;4358775;32;317440;-76
2024/01/24 02:28:18;;;;;;;14.57;7.53;;;;;;;;;;4347666;32;328121;-76
2024/01/24 02:30:45;;;;;;;17.47;8.87;;;;;;;;;;4360182;32;316899;-76
2024/01/24 02:33:14;;;;;;;18.00;9.50;;;;;;;;;;4343215;32;317166;-76
2024/01/24 02:35:41;;;;;;;14.40;8.90;;;;;;;;;;4359307;32;336471;-76
2024/01/24 02:38:07;;;;;;;15.97;10.00;;;;;;;;;;4350615;32;316955;-77
2024/01/24 02:40:35;;;;;;;17.13;11.00;;;;;;;;;;4359114;32;318444;-77
2024/01/24 02:43:05;;;;;;;16.00;9.47;;;;;;;;;;4348591;32;318212;-76
2024/01/24 02:45:32;;;;;;;28.30;14.73;;;;;;;;;;4358539;32;317435;-77
2024/01/24 02:47:59;;;;;;;23.93;13.40;;;;;;;;;;4344067;32;319056;-76
2024/01/24 02:50:26;;;;;;;23.53;15.40;;;;;;;;;;4348330;32;318391;-76
2024/01/24 02:52:53;;;;;;;24.47;14.23;;;;;;;;;;4340499;32;318331;-76
2024/01/24 02:55:20;;;;;;;31.33;17.20;;;;;;;;;;4340294;32;318297;-76
2024/01/24 02:57:48;;;;;;;24.13;12.50;;;;;;;;;;4348086;32;317708;-76
2024/01/24 03:00:18;;;;;;;31.37;18.83;;;;;;;;;;4337966;32;333098;-76
2024/01/24 03:02:46;;;;;;;16.07;9.00;;;;;;;;;;4344412;32;317643;-77
2024/01/24 03:05:13;;;;;;;11.63;8.50;;;;;;;;;;4342354;32;333842;-76
2024/01/24 03:07:41;;;;;;;16.17;7.87;;;;;;;;;;4362839;32;316452;-76
2024/01/24 03:10:09;;;;;;;11.60;7.43;;;;;;;;;;4352575;32;316487;-76
2024/01/24 03:12:37;;;;;;;13.27;6.40;;;;;;;;;;4363272;32;317114;-76
2024/01/24 03:15:08;;;;;;;13.53;7.63;;;;;;;;;;4349603;32;317441;-76
2024/01/24 03:17:36;;;;;;;13.60;7.00;;;;;;;;;;4362169;32;337729;-76
2024/01/24 03:20:05;;;;;;;12.10;7.40;;;;;;;;;;4351535;32;317511;-76
2024/01/24 03:22:31;;;;;;;12.97;7.17;;;;;;;;;;4362700;32;315528;-76
2024/01/24 03:24:59;;;;;;;12.27;7.30;;;;;;;;;;4352174;32;317799;-76
2024/01/24 03:27:26;;;;;;;16.63;9.10;;;;;;;;;;4356281;32;317292;-76
2024/01/24 03:29:55;;;;;;;23.13;11.87;;;;;;;;;;4362185;32;347518;-76
2024/01/24 03:32:22;;;;;;;18.53;11.40;;;;;;;;;;4349197;32;418958;-76
2024/01/24 03:34:59;;;;;;;19.60;11.33;;;;;;;;;;4361197;32;318488;-76
2024/01/24 03:37:27;;;;;;;22.90;13.23;;;;;;;;;;4338622;32;419044;-76
2024/01/24 03:39:54;;;;;;;23.20;13.33;;;;;;;;;;4338454;32;318588;-76
2024/01/24 03:42:21;;;;;;;21.33;11.80;;;;;;;;;;4359461;32;318331;-76
2024/01/24 03:44:47;;;;;;;22.20;12.07;;;;;;;;;;4362455;32;318342;-76
2024/01/24 03:47:16;;;;;;;29.90;18.00;;;;;;;;;;4381792;32;318135;-76
2024/01/24 03:49:45;;;;;;;32.37;19.90;;;;;;;;;;4409179;32;318328;-76
2024/01/24 03:52:15;;;;;;;28.23;18.67;;;;;;;;;;4396205;32;342470;-76
2024/01/24 03:54:42;;;;;;;19.43;13.23;;;;;;;;;;4410250;32;318356;-76
2024/01/24 03:57:08;;;;;;;22.13;13.83;;;;;;;;;;4389466;32;318776;-76
2024/01/24 03:59:37;;;;;;;19.40;12.43;;;;;;;;;;4408801;32;342349;-76
2024/01/24 04:02:05;;;;;;;26.17;13.90;;;;;;;;;;4398428;32;318334;-76
2024/01/24 04:04:32;;;;;;;17.73;12.00;;;;;;;;;;4407227;32;318083;-76
2024/01/24 04:06:58;;;;;;;19.40;11.80;;;;;;;;;;4389949;32;318256;-76
2024/01/24 04:09:28;;;;;;;22.87;11.00;;;;;;;;;;4387183;32;318249;-76
2024/01/24 04:11:55;;;;;;;18.90;12.40;;;;;;;;;;4384551;32;318260;-76
2024/01/24 04:14:22;;;;;;;20.17;11.30;;;;;;;;;;4394679;32;318488;-76
2024/01/24 04:16:48;;;;;;;18.27;11.67;;;;;;;;;;4392866;32;318338;-76
2024/01/24 04:19:16;;;;;;;22.77;14.60;;;;;;;;;;4338525;32;318512;-76
2024/01/24 04:21:47;;;;;;;28.63;14.10;;;;;;;;;;4359117;32;340158;-76
2024/01/24 04:24:16;;;;;;;17.80;11.67;;;;;;;;;;4349876;32;318651;-76
2024/01/24 04:26:46;;;;;;;17.80;10.43;;;;;;;;;;4361738;32;318447;-76
2024/01/24 04:29:13;;;;;;;25.50;12.80;;;;;;;;;;4346070;32;318307;-76
2024/01/24 04:31:42;;;;;;;24.17;13.13;;;;;;;;;;4361527;32;318147;-76
2024/01/24 04:34:09;;;;;;;23.30;13.37;;;;;;;;;;4349967;32;318410;-76
2024/01/24 04:36:36;;;;;;;22.27;13.07;;;;;;;;;;4359121;32;318331;-76
2024/01/24 04:39:11;;;;;;;47.23;24.97;;;;;;;;;;4345840;32;318701;-76
2024/01/24 04:41:39;;;;;;;75.07;36.10;;;;;;;;;;4360162;32;318139;-76
2024/01/24 04:44:07;;;;;;;75.00;36.80;;;;;;;;;;4343314;32;318389;-76
2024/01/24 04:46:36;;;;;;;69.43;35.97;;;;;;;;;;4361085;32;318407;-76
2024/01/24 04:49:04;;;;;;;64.83;33.67;;;;;;;;;;4384977;32;318324;-77
2024/01/24 04:51:32;;;;;;;75.93;37.30;;;;;;;;;;4406747;32;318194;-76
2024/01/24 04:53:59;;;;;;;88.73;43.20;;;;;;;;;;4398917;32;318302;-76
2024/01/24 04:56:27;;;;;;;93.87;44.77;;;;;;;;;;4385132;32;318304;-76
2024/01/24 04:58:56;;;;;;;78.27;43.40;;;;;;;;;;4389293;32;317834;-77
2024/01/24 05:01:24;;;;;;;63.77;34.87;;;;;;;;;;4402557;32;318388;-77
2024/01/24 05:03:51;;;;;;;70.20;35.50;;;;;;;;;;4409376;32;317658;-77
2024/01/24 05:06:17;;;;;;;65.70;35.87;;;;;;;;;;4398806;32;318373;-77
2024/01/24 05:08:46;;;;;;;98.73;53.93;;;;;;;;;;4405704;32;318342;-77
2024/01/24 05:11:14;;;;;;;105.70;54.43;;;;;;;;;;4390522;32;318310;-76
2024/01/24 05:13:41;;;;;;;66.70;36.30;;;;;;;;;;4356433;32;319453;-76
2024/01/24 05:16:08;;;;;;;58.27;32.50;;;;;;;;;;4320591;33;321659;-76
2024/01/24 05:18:37;;;;;;;85.63;49.43;;;;;;;;;;4330535;33;318277;-76
2024/01/24 05:21:05;;;;;;;102.47;54.27;;;;;;;;;;4316652;32;325379;-76
2024/01/24 05:23:32;;;;;;;94.97;48.73;;;;;;;;;;4317292;32;319428;-76
2024/01/24 05:25:59;;;;;;;89.37;46.63;;;;;;;;;;4324620;32;317645;-76
2024/01/24 05:28:27;;;;;;;77.53;41.73;;;;;;;;;;4335792;33;317832;-76
2024/01/24 05:30:56;;;;;;;65.00;38.03;;;;;;;;;;4341563;32;317973;-76
2024/01/24 05:33:23;;;;;;;68.60;40.53;;;;;;;;;;4325154;33;417268;-77
2024/01/24 05:35:52;;;;;;;66.97;37.97;;;;;;;;;;4339274;32;317748;-76
2024/01/24 05:38:20;;;;;;;63.50;36.97;;;;;;;;;;4350345;32;417779;-76
2024/01/24 05:40:48;;;;;;;61.20;36.07;;;;;;;;;;4405952;32;317735;-76
2024/01/24 05:43:17;;;;;;;71.17;40.47;;;;;;;;;;4388650;32;318062;-76
2024/01/24 05:45:49;;;;;;;71.00;39.43;;;;;;;;;;4407728;32;318334;-76
2024/01/24 05:48:18;;;;;;;79.70;40.77;;;;;;;;;;4397294;32;318152;-76
2024/01/24 05:50:44;;;;;;;110.47;52.17;;;;;;;;;;4405686;32;317591;-77
2024/01/24 05:53:13;;;;;;;118.13;55.43;;;;;;;;;;4381884;32;359296;-76
2024/01/24 05:55:40;;;;;;;103.73;55.57;;;;;;;;;;4377977;32;318682;-76
2024/01/24 05:58:08;;;;;;;92.30;53.97;;;;;;;;;;4396855;32;319306;-76
2024/01/24 06:00:37;;;;;;;103.37;58.97;;;;;;;;;;4408115;32;319095;-76
2024/01/24 06:03:04;;;;;;;108.53;62.67;;;;;;;;;;4393525;32;319320;-77
2024/01/24 06:05:32;;;;;;;133.07;67.23;;;;;;;;;;4405122;32;318635;-76
2024/01/24 06:08:02;;;;;;;127.40;73.33;;;;;;;;;;4409757;32;320202;-76
2024/01/24 06:10:31;;;;;;;119.10;68.37;;;;;;;;;;4421970;32;319162;-76
2024/01/24 06:12:59;;;;;;;116.53;63.80;;;;;;;;;;4410078;32;318680;-76
2024/01/24 06:15:27;;;;;;;115.40;60.23;;;;;;;;;;4410574;32;318673;-76
2024/01/24 06:17:54;;;;;;;113.30;59.90;;;;;;;;;;4396345;32;319374;-76
2024/01/24 06:20:20;;;;;;;101.57;57.37;;;;;;;;;;4407477;32;318775;-77
2024/01/24 06:22:47;;;;;;;120.53;68.07;;;;;;;;;;4409074;32;358197;-76
2024/01/24 06:25:15;;;;;;;124.10;65.60;;;;;;;;;;4393012;32;319415;-76
2024/01/24 06:27:45;;;;;;;110.60;64.37;;;;;;;;;;4411184;32;317777;-76
2024/01/24 06:30:13;;;;;;;108.73;63.67;;;;;;;;;;4400210;32;319775;-76
2024/01/24 06:32:40;;;;;;;102.67;61.40;;;;;;;;;;4411604;32;318221;-77
2024/01/24 06:35:08;;;;;;;98.80;51.57;;;;;;;;;;4395240;32;319218;-76
2024/01/24 06:37:34;;;;;;;116.50;59.63;;;;;;;;;;4403603;32;317332;-76
2024/01/24 06:40:03;;;;;;;113.17;69.20;;;;;;;;;;4398816;32;319175;-76
2024/01/24 06:42:30;;;;;;;134.27;73.97;;;;;;;;;;4404424;32;319304;-78
2024/01/24 06:44:59;;;;;;;115.97;67.10;;;;;;;;;;4395764;32;319273;-78
2024/01/24 06:47:27;;;;;;;121.77;65.97;;;;;;;;;;4403683;32;318823;-78
2024/01/24 06:49:54;;;;;;;117.80;61.23;;;;;;;;;;4383296;32;318845;-78
2024/01/24 06:52:20;;;;;;;121.47;65.77;;;;;;;;;;4407913;32;319582;-78
2024/01/24 06:54:48;;;;;;;115.80;58.53;;;;;;;;;;4408257;32;318385;-78
2024/01/24 06:57:16;;;;;;;103.37;57.33;;;;;;;;;;4385986;32;319186;-77
2024/01/24 06:59:43;;;;;;;131.67;76.10;;;;;;;;;;4407994;32;318531;-78
2024/01/24 07:02:13;;;;;;;171.87;87.73;;;;;;;;;;4398829;32;319427;-78
2024/01/24 07:04:41;;;;;;;154.43;89.40;;;;;;;;;;4368183;32;319088;-77
2024/01/24 07:07:07;;;;;;;153.60;89.23;;;;;;;;;;4336300;32;318879;-78
2024/01/24 07:09:38;;;;;;;105.77;58.47;;;;;;;;;;4359767;32;317308;-78
2024/01/24 07:12:06;;;;;;;70.93;43.77;;;;;;;;;;4353083;32;319138;-79
2024/01/24 07:14:33;;;;;;;65.03;36.23;;;;;;;;;;4385912;32;317812;-77
2024/01/24 07:17:05;;;;;;;67.77;37.30;;;;;;;;;;4384391;32;318186;-77
2024/01/24 07:19:33;;;;;;;72.90;41.30;;;;;;;;;;4386620;32;317429;-77
2024/01/24 07:22:01;;;;;;;87.73;42.57;;;;;;;;;;4384073;32;318301;-77
2024/01/24 07:24:28;;;;;;;83.33;47.93;;;;;;;;;;4408897;32;319035;-77
2024/01/24 07:26:57;;;;;;;79.50;46.77;;;;;;;;;;4406210;32;318445;-78
2024/01/24 07:29:24;;;;;;;84.73;46.57;;;;;;;;;;4401939;32;318363;-77
2024/01/24 07:31:50;;;;;;;95.23;45.77;;;;;;;;;;4404506;32;317711;-77
2024/01/24 07:34:24;;;;;;;77.43;42.03;;;;;;;;;;4400810;32;318364;-77
2024/01/24 07:36:53;;;;;;;95.17;44.97;;;;;;;;;;4409122;32;317220;-77
2024/01/24 07:39:20;;;;;;;80.70;44.40;;;;;;;;;;4389946;32;419116;-77
2024/01/24 07:41:48;;;;;;;80.80;47.50;;;;;;;;;;4405782;32;317648;-77
2024/01/24 07:44:18;;;;;;;95.17;53.17;;;;;;;;;;4391355;32;318458;-77
2024/01/24 07:46:46;;;;;;;79.30;40.43;;;;;;;;;;4398266;32;317584;-77
2024/01/24 07:49:13;;;;;;;63.20;37.10;;;;;;;;;;4393201;32;318878;-77
2024/01/24 07:51:41;;;;;;;74.90;39.30;;;;;;;;;;4409150;32;317520;-77
2024/01/24 07:54:10;;;;;;;70.10;39.90;;;;;;;;;;4399876;32;317653;-78
2024/01/24 07:56:38;;;;;;;72.87;39.53;;;;;;;;;;4408659;32;323336;-77
2024/01/24 07:59:08;;;;;;;68.60;38.53;;;;;;;;;;4393144;32;318460;-76
2024/01/24 08:01:34;;;;;;;80.10;45.20;;;;;;;;;;4408565;32;317459;-76
2024/01/24 08:04:03;;;;;;;84.17;49.07;;;;;;;;;;4397890;32;351936;-77
2024/01/24 08:06:29;;;;;;;87.53;47.30;;;;;;;;;;4407974;32;318274;-77
2024/01/24 08:08:57;;;;;;;75.63;47.50;;;;;;;;;;4398215;32;365769;-77
2024/01/24 08:11:25;;;;;;;81.87;50.07;;;;;;;;;;4397259;32;317894;-77
2024/01/24 08:13:53;;;;;;;82.87;51.17;;;;;;;;;;4408479;32;318047;-77
2024/01/24 08:16:21;;;;;;;77.57;48.77;;;;;;;;;;4393631;32;418672;-77
2024/01/24 08:18:48;;;;;;;83.67;51.60;;;;;;;;;;4407312;32;316689;-77
2024/01/24 08:21:14;;;;;;;91.35;49.85;;;;;;;;;;4390900;32;330168;-77
2024/01/24 08:23:43;;;;;;;88.50;51.40;;;;;;;;;;4408317;32;318172;-77
2024/01/24 08:26:10;;;;;;;85.57;48.87;;;;;;;;;;4398168;32;341575;-77
2024/01/24 08:28:39;;;;;;;72.20;42.80;;;;;;;;;;4407666;32;318155;-77
2024/01/24 08:31:08;;;;;;;80.23;43.73;;;;;;;;;;4390188;32;318202;-77
2024/01/24 08:33:34;;;;;;;71.23;42.90;;;;;;;;;;4407705;32;317828;-77
2024/01/24 08:36:01;;;;;;;62.00;37.40;;;;;;;;;;4394128;32;318120;-77
2024/01/24 08:38:30;;;;;;;65.07;38.20;;;;;;;;;;4407710;32;317368;-77
2024/01/24 08:40:57;;;;;;;49.40;28.10;;;;;;;;;;4398468;32;318269;-77
2024/01/24 08:43:25;;;;;;;47.27;23.03;;;;;;;;;;4388854;32;317517;-76
2024/01/24 08:45:54;;;;;;;32.73;19.53;;;;;;;;;;4394261;32;318949;-77
2024/01/24 08:48:24;;;;;;;36.03;18.03;;;;;;;;;;4390165;32;417720;-77
2024/01/24 08:50:51;;;;;;;39.03;21.37;;;;;;;;;;4408264;32;317935;-78
2024/01/24 08:53:19;;;;;;;42.77;21.47;;;;;;;;;;4390037;32;318351;-77
2024/01/24 08:55:47;;;;;;;36.00;21.77;;;;;;;;;;4401752;32;318202;-77
2024/01/24 08:58:15;;;;;;;37.87;21.70;;;;;;;;;;4394841;32;318495;-77
2024/01/24 09:00:41;;;;;;;49.43;26.80;;;;;;;;;;4408750;32;317752;-77
2024/01/24 09:03:11;;;;;;;74.70;26.23;;;;;;;;;;4393544;32;317677;-78
2024/01/24 09:05:37;;;;;;;79.00;26.07;;;;;;;;;;4408227;32;318246;-77
2024/01/24 09:08:08;;;;;;;52.10;22.10;;;;;;;;;;4396520;32;318186;-78
2024/01/24 09:10:36;;;;;;;42.57;20.67;;;;;;;;;;4408909;32;318373;-78
2024/01/24 09:13:04;;;;;;;41.30;20.70;;;;;;;;;;4397509;32;321169;-77
2024/01/24 09:15:32;;;;;;;39.73;19.60;;;;;;;;;;4403289;32;326398;-77
2024/01/24 09:18:00;;;;;;;229.13;32.47;;;;;;;;;;4397778;32;318010;-77
2024/01/24 09:20:28;;;;;;;320.10;44.77;;;;;;;;;;4407026;32;325064;-77
2024/01/24 09:22:54;;;;;;;53.23;21.00;;;;;;;;;;4396798;32;318353;-77
2024/01/24 09:25:21;;;;;;;19.70;10.43;;;;;;;;;;4397658;32;317745;-78
2024/01/24 09:27:48;;;;;;;21.43;12.00;;;;;;;;;;4406009;32;318101;-76
2024/01/24 09:30:15;;;;;;;23.10;11.80;;;;;;;;;;4397154;32;318688;-77
2024/01/24 09:32:43;;;;;;;26.67;9.43;;;;;;;;;;4407169;32;317662;-78
2024/01/24 09:35:11;;;;;;;45.47;11.83;;;;;;;;;;4391118;32;317150;-78
2024/01/24 09:37:40;;;;;;;46.07;11.97;;;;;;;;;;4402875;32;317402;-78
2024/01/24 09:40:11;;;;;;;54.70;13.17;;;;;;;;;;4382889;32;318024;-77
2024/01/24 09:42:43;;;;;;;27.73;10.17;;;;;;;;;;4393512;32;316516;-76
2024/01/24 09:45:11;;;;;;;53.13;10.97;;;;;;;;;;4384760;32;322949;-76
2024/01/24 09:47:38;;;;;;;81.10;13.80;;;;;;;;;;4398912;32;318233;-76
2024/01/24 09:50:07;;;;;;;19.60;8.93;;;;;;;;;;4391494;32;317673;-76
2024/01/24 09:52:36;;;;;;;13.23;7.47;;;;;;;;;;4406076;32;316674;-76
2024/01/24 09:55:13;;;;;;;11.70;6.33;;;;;;;;;;4393341;32;316383;-76
2024/01/24 09:57:40;;;;;;;76.50;10.93;;;;;;;;;;4401370;32;317128;-76
2024/01/24 10:00:10;;;;;;;35.23;9.83;;;;;;;;;;4394422;32;318147;-76
2024/01/24 10:02:39;;;;;;;75.70;15.00;;;;;;;;;;4408426;32;317011;-76
2024/01/24 10:05:13;;;;;;;19.23;8.57;;;;;;;;;;4392463;32;317949;-75
2024/01/24 10:07:42;;;;;;;17.00;9.57;;;;;;;;;;4405063;32;316603;-77
2024/01/24 10:10:13;;;;;;;31.63;12.03;;;;;;;;;;4397042;32;317066;-76
2024/01/24 10:12:42;;;;;;;15.60;6.97;;;;;;;;;;4397417;32;317448;-77
2024/01/24 10:15:11;;;;;;;35.80;9.23;;;;;;;;;;4376020;32;317216;-76
2024/01/24 10:17:42;;;;;;;25.70;9.67;;;;;;;;;;4393152;32;315370;-77
2024/01/24 10:20:11;;;;;;;20.13;7.17;;;;;;;;;;4374624;32;336108;-77
2024/01/24 10:22:40;;;;;;;20.63;7.80;;;;;;;;;;4391442;32;316992;-77
2024/01/24 10:25:10;;;;;;;15.17;7.13;;;;;;;;;;4377503;32;317103;-78
2024/01/24 10:27:41;;;;;;;29.10;7.50;;;;;;;;;;4392496;32;317227;-77
2024/01/24 10:30:11;;;;;;;16.43;6.17;;;;;;;;;;4378949;32;317235;-78
2024/01/24 10:32:39;;;;;;;12.87;7.37;;;;;;;;;;4395811;32;317248;-78
2024/01/24 10:35:09;;;;;;;16.77;9.30;;;;;;;;;;4382806;32;316545;-77
2024/01/24 10:37:37;;;;;;;11.67;5.00;;;;;;;;;;4396617;32;316351;-77
2024/01/24 10:40:06;;;;;;;18.33;6.70;;;;;;;;;;4397394;32;316494;-77
2024/01/24 10:42:39;;;;;;;27.93;6.90;;;;;;;;;;4406691;32;333806;-77
2024/01/24 10:45:12;;;;;;;13.93;6.30;;;;;;;;;;4390135;32;332454;-77
2024/01/24 10:47:41;;;;;;;14.53;5.70;;;;;;;;;;4407078;32;316478;-77
2024/01/24 10:50:10;;;;;;;12.33;5.87;;;;;;;;;;4395169;32;317335;-77
2024/01/24 10:52:39;;;;;;;9.97;5.50;;;;;;;;;;4406461;32;315570;-77
2024/01/24 10:55:12;;;;;;;19.87;6.37;;;;;;;;;;4391002;32;316199;-79
2024/01/24 10:57:41;;;;;;;9.20;5.07;;;;;;;;;;4406767;32;316552;-78
2024/01/24 11:00:14;;;;;;;21.67;9.67;;;;;;;;;;4389820;32;315888;-77
2024/01/24 11:02:41;;;;;;;25.47;7.60;;;;;;;;;;4402799;32;317098;-78
2024/01/24 11:05:13;;;;;;;14.27;6.60;;;;;;;;;;4382849;32;319578;-77
2024/01/24 11:07:47;;;;;;;21.90;5.13;;;;;;;;;;4406147;32;318002;-78
2024/01/24 11:10:21;;;;;;;8.90;4.83;;;;;;;;;;4401270;32;318148;-78
2024/01/24 11:12:49;;;;;;;9.47;4.93;;;;;;;;;;4409574;32;317364;-77
2024/01/24 11:15:18;;;;;;;14.77;5.30;;;;;;;;;;4389520;32;317085;-77
2024/01/24 11:17:46;;;;;;;7.43;3.83;;;;;;;;;;4410133;32;327447;-78
2024/01/24 11:20:14;;;;;;;9.57;4.53;;;;;;;;;;4397601;32;318164;-77
2024/01/24 11:22:41;;;;;;;16.53;6.23;;;;;;;;;;4408466;32;317206;-78
2024/01/24 11:25:11;;;;;;;8.53;5.40;;;;;;;;;;4393420;32;317629;-79
2024/01/24 11:27:41;;;;;;;13.97;4.40;;;;;;;;;;4409742;32;316447;-78
2024/01/24 11:30:39;;;;;;;92.30;44.80;;;;;;;;;;4397894;32;317912;-78
2024/01/24 11:33:14;;;;;;;22.63;10.03;;;;;;;;;;4378533;32;319293;-78
2024/01/24 11:35:45;;;;;;;145.83;90.70;;;;;;;;;;4393795;32;319090;-77
2024/01/24 11:38:36;;;;;;;10.63;6.53;;;;;;;;;;4392749;32;320926;-80
2024/01/24 11:41:22;;;;;;;9.07;5.07;;;;;;;;;;4389027;32;352696;-78
2024/01/24 11:43:50;;;;;;;9.67;4.47;;;;;;;;;;4396919;32;317226;-79
2024/01/24 11:46:19;;;;;;;9.83;5.93;;;;;;;;;;4397534;32;317214;-79
2024/01/24 11:48:46;;;;;;;20.47;5.57;;;;;;;;;;4407059;32;317129;-78
2024/01/24 11:51:15;;;;;;;20.90;11.30;;;;;;;;;;4389156;32;317340;-78
2024/01/24 11:53:43;;;;;;;54.00;11.57;;;;;;;;;;4409289;32;318897;-78
2024/01/24 11:56:14;;;;;;;196.77;23.30;;;;;;;;;;4391504;32;318332;-78
2024/01/24 11:58:42;;;;;;;41.57;24.07;;;;;;;;;;4393446;32;320230;-78
2024/01/24 12:01:11;;;;;;;88.67;15.97;;;;;;;;;;4378624;32;318933;-77
2024/01/24 12:03:50;;;;;;;18.50;6.07;;;;;;;;;;4395325;32;318670;-78
2024/01/24 12:06:18;;;;;;;32.47;9.77;;;;;;;;;;4388936;32;318009;-79
2024/01/24 12:08:49;;;;;;;41.17;10.37;;;;;;;;;;4408046;32;317923;-80
2024/01/24 12:11:16;;;;;;;341.43;242.47;;;;;;;;;;4394204;32;319430;-81
2024/01/24 12:13:43;;;;;;;37.80;23.67;;;;;;;;;;4406436;32;326302;-80
2024/01/24 12:18:52;;;;;;;33.03;17.07;;;;;;;;;;4391775;32;343092;-79
2024/01/24 12:21:21;;;;;;;60.77;39.77;;;;;;;;;;4375388;32;416315;-81
2024/01/24 12:23:49;;;;;;;10.13;7.23;;;;;;;;;;4393595;32;318540;-81
2024/01/24 12:26:16;;;;;;;19.37;12.97;;;;;;;;;;4384873;32;316291;-80
2024/01/24 12:28:43;;;;;;;13.33;5.30;;;;;;;;;;4392372;32;317586;-81
2024/01/24 12:31:12;;;;;;;85.33;10.63;;;;;;;;;;4378309;32;316426;-81
2024/01/24 12:33:41;;;;;;;8.47;4.23;;;;;;;;;;4395647;32;318345;-79
2024/01/24 12:36:11;;;;;;;40.20;33.03;;;;;;;;;;4383234;32;316228;-80
2024/01/24 12:38:40;;;;;;;11.33;5.90;;;;;;;;;;4392091;32;318380;-82
2024/01/24 12:41:09;;;;;;;101.03;71.23;;;;;;;;;;4377472;32;316848;-81
2024/01/24 12:43:40;;;;;;;15.60;9.53;;;;;;;;;;4391615;32;318624;-78
2024/01/24 12:46:07;;;;;;;13.30;7.00;;;;;;;;;;4384059;32;317388;-79
2024/01/24 12:48:35;;;;;;;46.03;16.87;;;;;;;;;;4393791;32;353153;-81
2024/01/24 12:53:45;;;;;;;25.27;12.70;;;;;;;;;;4393782;32;318294;-79
2024/01/24 12:56:15;;;;;;;11.53;5.30;;;;;;;;;;4385332;32;318244;-79
2024/01/24 12:58:46;;;;;;;11.93;5.03;;;;;;;;;;4394049;32;344176;-79
2024/01/24 13:01:12;;;;;;;11.97;5.53;;;;;;;;;;4371370;32;317234;-79
2024/01/24 13:03:42;;;;;;;12.97;7.93;;;;;;;;;;4391447;32;317374;-80
2024/01/24 13:06:09;;;;;;;14.83;9.70;;;;;;;;;;4381126;32;317374;-79
2024/01/24 13:08:40;;;;;;;10.97;6.03;;;;;;;;;;4393622;32;315717;-82
2024/01/24 13:11:08;;;;;;;29.23;13.50;;;;;;;;;;4375864;32;317130;-80
2024/01/24 13:13:39;;;;;;;17.97;9.23;;;;;;;;;;4393988;32;318292;-79
2024/01/24 13:16:06;;;;;;;17.83;6.97;;;;;;;;;;4385134;32;317243;-81
2024/01/24 13:18:33;;;;;;;17.90;8.23;;;;;;;;;;4393731;32;317311;-79
2024/01/24 13:21:05;;;;;;;23.47;15.53;;;;;;;;;;4375622;32;317230;-76
2024/01/24 13:23:32;;;;;;;65.50;34.40;;;;;;;;;;4370154;32;317640;-78
2024/01/24 13:25:59;;;;;;;41.63;21.97;;;;;;;;;;4357138;32;334541;-76
2024/01/24 13:28:29;;;;;;;109.70;61.27;;;;;;;;;;4377281;32;317869;-76
2024/01/24 13:30:59;;;;;;;8.23;4.70;;;;;;;;;;4360649;32;319347;-77
2024/01/24 13:33:28;;;;;;;56.30;32.40;;;;;;;;;;4383909;32;316350;-77
2024/01/24 13:35:56;;;;;;;85.70;44.97;;;;;;;;;;4349795;32;318303;-78
2024/01/24 13:38:24;;;;;;;53.33;29.93;;;;;;;;;;4368721;32;317546;-77
2024/01/24 13:40:51;;;;;;;62.57;33.27;;;;;;;;;;4376999;32;317061;-76
2024/01/24 13:43:18;;;;;;;91.67;49.33;;;;;;;;;;4377430;32;316781;-78
2024/01/24 13:46:08;;;;;;;14.93;8.07;;;;;;;;;;4378633;32;317721;-77
2024/01/24 13:48:36;;;;;;;60.10;29.10;;;;;;;;;;4381154;32;417935;-77
2024/01/24 13:51:05;;;;;;;47.43;23.03;;;;;;;;;;4372181;32;316905;-76
2024/01/24 13:53:31;;;;;;;82.87;43.00;;;;;;;;;;4389520;32;316735;-78
2024/01/24 13:55:58;;;;;;;155.60;79.93;;;;;;;;;;4373117;32;318266;-77
2024/01/24 13:58:28;;;;;;;38.97;21.67;;;;;;;;;;4370906;32;318945;-77
2024/01/24 14:00:55;;;;;;;66.17;32.20;;;;;;;;;;4365195;32;317605;-79
2024/01/24 14:03:35;;;;;;;101.17;51.03;;;;;;;;;;4370103;32;317121;-78
2024/01/24 14:06:03;;;;;;;54.63;25.93;;;;;;;;;;4360192;32;319346;-78
2024/01/24 14:08:39;;;;;;;15.50;8.47;;;;;;;;;;4367218;32;318141;-76
2024/01/24 14:11:08;;;;;;;14.77;7.93;;;;;;;;;;4359088;32;316879;-76
2024/01/24 14:13:37;;;;;;;86.60;45.47;;;;;;;;;;4390065;32;316678;-77
2024/01/24 14:16:06;;;;;;;15.50;9.10;;;;;;;;;;4381580;32;317846;-78
2024/01/24 14:18:39;;;;;;;63.87;36.93;;;;;;;;;;4393903;32;317430;-77
2024/01/24 14:21:07;;;;;;;17.67;10.57;;;;;;;;;;4374645;32;318250;-77
2024/01/24 14:23:35;;;;;;;23.27;9.50;;;;;;;;;;4390892;32;316943;-78